SAS1214 EKYT-EKCH
Flight info
| Callsign | SAS1214 |
|---|---|
| Flight time | 0h 32m |
| Altitude | 19000 |
| Route | AAL M725 ADSEN DCT TNO |
| Aircraft | A319/M-SDE3FGHIRWY/LB1 |
Departure
| Time | 2026-05-07 15:29 |
|---|---|
| Airport | Aalborg Airport (EKYT) |
Arrival
| Time | 2026-05-07 16:02 |
|---|---|
| Airport | Copenhagen Kastrup Airport (EKCH) |
| Time | Latitude | Longitude | Altitude | Speed | Heading |
|---|---|---|---|---|---|
| 2026-05-07 15:10 | 57.08646 | 9.87058 | 20 ft | 0 kts | 55° |
| 2026-05-07 15:20 | 57.08640 | 9.87042 | 19 ft | 3 kts | 53° |
| 2026-05-07 15:20 | 57.08628 | 9.87013 | 23 ft | 3 kts | 45° |
| 2026-05-07 15:21 | 57.08613 | 9.86990 | 21 ft | 3 kts | 20° |
| 2026-05-07 15:21 | 57.08599 | 9.86985 | 20 ft | 2 kts | 322° |
| 2026-05-07 15:21 | 57.08596 | 9.86990 | 23 ft | 0 kts | 310° |
| 2026-05-07 15:23 | 57.08598 | 9.86986 | 21 ft | 2 kts | 312° |
| 2026-05-07 15:23 | 57.08626 | 9.86935 | 19 ft | 8 kts | 315° |
| 2026-05-07 15:23 | 57.08673 | 9.86851 | 19 ft | 11 kts | 318° |
| 2026-05-07 15:23 | 57.08739 | 9.86746 | 19 ft | 14 kts | 321° |
| 2026-05-07 15:24 | 57.08822 | 9.86625 | 19 ft | 17 kts | 321° |
| 2026-05-07 15:24 | 57.08917 | 9.86486 | 19 ft | 19 kts | 322° |
| 2026-05-07 15:24 | 57.09017 | 9.86345 | 19 ft | 17 kts | 323° |
| 2026-05-07 15:24 | 57.09118 | 9.86203 | 19 ft | 19 kts | 322° |
| 2026-05-07 15:25 | 57.09197 | 9.86092 | 19 ft | 13 kts | 322° |
| 2026-05-07 15:25 | 57.09269 | 9.85990 | 19 ft | 11 kts | 322° |
| 2026-05-07 15:25 | 57.09329 | 9.85929 | 19 ft | 9 kts | 2° |
| 2026-05-07 15:25 | 57.09355 | 9.86048 | 19 ft | 13 kts | 83° |
| 2026-05-07 15:26 | 57.09367 | 9.86243 | 19 ft | 18 kts | 83° |
| 2026-05-07 15:26 | 57.09382 | 9.86485 | 19 ft | 20 kts | 83° |
| 2026-05-07 15:26 | 57.09399 | 9.86756 | 19 ft | 22 kts | 83° |
| 2026-05-07 15:26 | 57.09419 | 9.87054 | 19 ft | 25 kts | 83° |
| 2026-05-07 15:27 | 57.09440 | 9.87379 | 19 ft | 27 kts | 83° |
| 2026-05-07 15:27 | 57.09468 | 9.87681 | 19 ft | 21 kts | 56° |
| 2026-05-07 15:27 | 57.09582 | 9.87734 | 19 ft | 18 kts | 342° |
| 2026-05-07 15:27 | 57.09640 | 9.87634 | 19 ft | 16 kts | 293° |
| 2026-05-07 15:28 | 57.09643 | 9.87522 | 21 ft | 1 kts | 263° |
| 2026-05-07 15:28 | 57.09643 | 9.87521 | 21 ft | 0 kts | 263° |
| 2026-05-07 15:29 | 57.09640 | 9.87469 | 19 ft | 27 kts | 263° |
| 2026-05-07 15:29 | 57.09580 | 9.86548 | 19 ft | 115 kts | 263° |
| 2026-05-07 15:29 | 57.09464 | 9.84730 | 322 ft | 152 kts | 263° |
| 2026-05-07 15:29 | 57.09342 | 9.82792 | 1049 ft | 159 kts | 263° |
| 2026-05-07 15:30 | 57.09200 | 9.80638 | 1380 ft | 181 kts | 262° |
| 2026-05-07 15:30 | 57.08967 | 9.78210 | 1774 ft | 204 kts | 248° |
| 2026-05-07 15:30 | 57.07476 | 9.75931 | 2365 ft | 236 kts | 191° |
| 2026-05-07 15:30 | 57.06338 | 9.75961 | 2761 ft | 251 kts | 165° |
| 2026-05-07 15:31 | 57.04777 | 9.77511 | 3680 ft | 262 kts | 143° |
| 2026-05-07 15:31 | 57.03389 | 9.79726 | 4758 ft | 266 kts | 137° |
| 2026-05-07 15:31 | 57.02035 | 9.82074 | 5786 ft | 270 kts | 138° |
| 2026-05-07 15:31 | 57.00638 | 9.84407 | 6788 ft | 273 kts | 140° |
| 2026-05-07 15:32 | 56.99181 | 9.86676 | 7714 ft | 277 kts | 142° |
| 2026-05-07 15:32 | 56.97661 | 9.88893 | 8661 ft | 281 kts | 143° |
| 2026-05-07 15:32 | 56.96094 | 9.91076 | 9589 ft | 285 kts | 144° |
| 2026-05-07 15:32 | 56.94481 | 9.93264 | 10367 ft | 296 kts | 145° |
| 2026-05-07 15:33 | 56.92754 | 9.95572 | 10681 ft | 319 kts | 145° |
| 2026-05-07 15:33 | 56.90893 | 9.98045 | 10970 ft | 341 kts | 144° |
| 2026-05-07 15:33 | 56.88949 | 10.00627 | 11578 ft | 349 kts | 145° |
| 2026-05-07 15:33 | 56.86969 | 10.03255 | 12309 ft | 354 kts | 144° |
| 2026-05-07 15:34 | 56.84964 | 10.05920 | 13041 ft | 359 kts | 145° |
| 2026-05-07 15:34 | 56.82932 | 10.08619 | 13749 ft | 364 kts | 145° |
| 2026-05-07 15:34 | 56.80873 | 10.11351 | 14404 ft | 368 kts | 145° |
| 2026-05-07 15:34 | 56.78790 | 10.14116 | 15036 ft | 372 kts | 145° |
| 2026-05-07 15:35 | 56.76663 | 10.16938 | 15713 ft | 375 kts | 145° |
| 2026-05-07 15:35 | 56.74536 | 10.19752 | 16346 ft | 379 kts | 146° |
| 2026-05-07 15:35 | 56.72386 | 10.22583 | 16986 ft | 384 kts | 146° |
| 2026-05-07 15:35 | 56.70213 | 10.25434 | 17637 ft | 387 kts | 146° |
| 2026-05-07 15:36 | 56.68013 | 10.28323 | 18305 ft | 391 kts | 145° |
| 2026-05-07 15:36 | 56.65813 | 10.31214 | 18861 ft | 394 kts | 145° |
| 2026-05-07 15:36 | 56.63585 | 10.34144 | 19064 ft | 395 kts | 145° |
| 2026-05-07 15:36 | 56.61330 | 10.37103 | 19120 ft | 408 kts | 145° |
| 2026-05-07 15:37 | 56.59007 | 10.40141 | 19123 ft | 414 kts | 145° |
| 2026-05-07 15:37 | 56.56666 | 10.43192 | 19122 ft | 416 kts | 145° |
| 2026-05-07 15:37 | 56.54310 | 10.46257 | 19127 ft | 416 kts | 145° |
| 2026-05-07 15:37 | 56.51958 | 10.49312 | 19132 ft | 417 kts | 146° |
| 2026-05-07 15:38 | 56.49600 | 10.52374 | 19131 ft | 417 kts | 145° |
| 2026-05-07 15:38 | 56.47243 | 10.55431 | 19133 ft | 417 kts | 146° |
| 2026-05-07 15:38 | 56.44884 | 10.58485 | 19134 ft | 417 kts | 146° |
| 2026-05-07 15:38 | 56.42527 | 10.61534 | 19136 ft | 417 kts | 146° |
| 2026-05-07 15:39 | 56.40170 | 10.64583 | 19136 ft | 417 kts | 146° |
| 2026-05-07 15:39 | 56.37811 | 10.67634 | 19127 ft | 416 kts | 145° |
| 2026-05-07 15:39 | 56.35457 | 10.70672 | 19130 ft | 416 kts | 145° |
| 2026-05-07 15:39 | 56.33103 | 10.73704 | 19132 ft | 416 kts | 146° |
| 2026-05-07 15:40 | 56.30746 | 10.76725 | 19134 ft | 416 kts | 146° |
| 2026-05-07 15:40 | 56.28386 | 10.79742 | 19135 ft | 416 kts | 146° |
| 2026-05-07 15:40 | 56.25994 | 10.82796 | 19135 ft | 416 kts | 146° |
| 2026-05-07 15:40 | 56.23635 | 10.85798 | 19125 ft | 416 kts | 146° |
| 2026-05-07 15:41 | 56.21277 | 10.88792 | 19127 ft | 416 kts | 146° |
| 2026-05-07 15:41 | 56.18906 | 10.91803 | 19130 ft | 416 kts | 146° |
| 2026-05-07 15:41 | 56.16542 | 10.94815 | 19132 ft | 416 kts | 146° |
| 2026-05-07 15:41 | 56.14195 | 10.97803 | 19133 ft | 416 kts | 146° |
| 2026-05-07 15:42 | 56.12421 | 11.00054 | 19133 ft | 416 kts | 146° |
| 2026-05-07 15:42 | 56.10155 | 11.02922 | 19132 ft | 416 kts | 146° |
| 2026-05-07 15:42 | 56.07788 | 11.05913 | 19125 ft | 416 kts | 146° |
| 2026-05-07 15:42 | 56.05504 | 11.08798 | 19128 ft | 415 kts | 146° |
| 2026-05-07 15:43 | 56.03141 | 11.11778 | 19061 ft | 411 kts | 146° |
| 2026-05-07 15:43 | 56.00835 | 11.14685 | 18815 ft | 403 kts | 146° |
| 2026-05-07 15:43 | 55.98549 | 11.17560 | 18577 ft | 400 kts | 146° |
| 2026-05-07 15:43 | 55.96248 | 11.20448 | 18328 ft | 398 kts | 146° |
| 2026-05-07 15:44 | 55.93983 | 11.23284 | 18054 ft | 397 kts | 146° |
| 2026-05-07 15:44 | 55.91728 | 11.26104 | 17781 ft | 395 kts | 146° |
| 2026-05-07 15:44 | 55.89484 | 11.28904 | 17509 ft | 392 kts | 146° |
| 2026-05-07 15:44 | 55.87283 | 11.31653 | 17240 ft | 380 kts | 146° |
| 2026-05-07 15:45 | 55.85152 | 11.34310 | 16977 ft | 368 kts | 146° |
| 2026-05-07 15:45 | 55.83134 | 11.36816 | 16721 ft | 357 kts | 146° |
| 2026-05-07 15:45 | 55.81078 | 11.39371 | 16454 ft | 347 kts | 146° |
| 2026-05-07 15:45 | 55.79247 | 11.42085 | 16200 ft | 339 kts | 133° |
| 2026-05-07 15:46 | 55.77059 | 11.49206 | 15687 ft | 325 kts | 104° |
| 2026-05-07 15:46 | 55.76700 | 11.53126 | 15433 ft | 320 kts | 97° |
| 2026-05-07 15:46 | 55.76390 | 11.57080 | 15179 ft | 318 kts | 98° |
| 2026-05-07 15:47 | 55.76078 | 11.60961 | 14885 ft | 317 kts | 98° |
| 2026-05-07 15:47 | 55.75766 | 11.64829 | 14478 ft | 317 kts | 98° |
| 2026-05-07 15:47 | 55.75451 | 11.68698 | 14092 ft | 316 kts | 98° |
| 2026-05-07 15:47 | 55.75136 | 11.72559 | 13662 ft | 316 kts | 98° |
| 2026-05-07 15:48 | 55.74824 | 11.76439 | 13267 ft | 313 kts | 98° |
| 2026-05-07 15:48 | 55.74523 | 11.80186 | 12979 ft | 308 kts | 98° |
| 2026-05-07 15:48 | 55.74218 | 11.83933 | 12583 ft | 306 kts | 98° |
| 2026-05-07 15:48 | 55.73914 | 11.87657 | 12213 ft | 304 kts | 97° |
| 2026-05-07 15:49 | 55.73608 | 11.91345 | 11871 ft | 300 kts | 98° |
| 2026-05-07 15:49 | 55.73306 | 11.94994 | 11529 ft | 298 kts | 98° |
| 2026-05-07 15:49 | 55.73007 | 11.98611 | 11188 ft | 295 kts | 97° |
| 2026-05-07 15:49 | 55.72713 | 12.02189 | 10847 ft | 292 kts | 96° |
| 2026-05-07 15:50 | 55.72422 | 12.05733 | 10402 ft | 289 kts | 97° |
| 2026-05-07 15:50 | 55.72132 | 12.09238 | 9897 ft | 285 kts | 97° |
| 2026-05-07 15:50 | 55.71843 | 12.12688 | 9370 ft | 280 kts | 97° |
| 2026-05-07 15:50 | 55.71551 | 12.16130 | 9037 ft | 278 kts | 97° |
| 2026-05-07 15:51 | 55.71260 | 12.19526 | 8682 ft | 278 kts | 99° |
| 2026-05-07 15:51 | 55.70676 | 12.22779 | 8342 ft | 279 kts | 115° |
| 2026-05-07 15:51 | 55.69594 | 12.25632 | 7991 ft | 280 kts | 131° |
| 2026-05-07 15:51 | 55.68158 | 12.27946 | 7635 ft | 279 kts | 139° |
| 2026-05-07 15:52 | 55.66677 | 12.30164 | 7279 ft | 278 kts | 139° |
| 2026-05-07 15:52 | 55.65190 | 12.32410 | 6917 ft | 277 kts | 139° |
| 2026-05-07 15:52 | 55.63723 | 12.34634 | 6564 ft | 277 kts | 139° |
| 2026-05-07 15:52 | 55.62201 | 12.36701 | 6183 ft | 276 kts | 152° |
| 2026-05-07 15:53 | 55.60382 | 12.37632 | 5952 ft | 270 kts | 177° |
| 2026-05-07 15:53 | 55.58563 | 12.37196 | 5817 ft | 261 kts | 201° |
| 2026-05-07 15:53 | 55.57041 | 12.35609 | 5685 ft | 250 kts | 222° |
| 2026-05-07 15:53 | 55.55753 | 12.33629 | 5495 ft | 242 kts | 223° |
| 2026-05-07 15:54 | 55.54487 | 12.31686 | 5120 ft | 241 kts | 223° |
| 2026-05-07 15:54 | 55.53232 | 12.29765 | 4861 ft | 235 kts | 222° |
| 2026-05-07 15:54 | 55.52030 | 12.27927 | 4720 ft | 223 kts | 223° |
| 2026-05-07 15:54 | 55.50876 | 12.26162 | 4482 ft | 217 kts | 222° |
| 2026-05-07 15:55 | 55.49742 | 12.24426 | 4159 ft | 216 kts | 223° |
| 2026-05-07 15:55 | 55.48476 | 12.23043 | 3797 ft | 216 kts | 195° |
| 2026-05-07 15:55 | 55.46995 | 12.23105 | 3436 ft | 215 kts | 159° |
| 2026-05-07 15:55 | 55.45828 | 12.24639 | 3070 ft | 210 kts | 122° |
| 2026-05-07 15:56 | 55.45454 | 12.26206 | 2835 ft | 205 kts | 97° |
| 2026-05-07 15:56 | 55.45530 | 12.28677 | 2528 ft | 201 kts | 78° |
| 2026-05-07 15:56 | 55.45810 | 12.31093 | 2184 ft | 202 kts | 76° |
| 2026-05-07 15:56 | 55.46122 | 12.33499 | 1991 ft | 201 kts | 75° |
| 2026-05-07 15:57 | 55.46433 | 12.35858 | 1991 ft | 196 kts | 75° |
| 2026-05-07 15:57 | 55.46739 | 12.38177 | 1978 ft | 194 kts | 75° |
| 2026-05-07 15:57 | 55.47059 | 12.40473 | 1978 ft | 193 kts | 70° |
| 2026-05-07 15:57 | 55.47642 | 12.42581 | 1984 ft | 191 kts | 55° |
| 2026-05-07 15:58 | 55.48606 | 12.44158 | 1988 ft | 190 kts | 34° |
| 2026-05-07 15:58 | 55.49628 | 12.45614 | 1978 ft | 183 kts | 39° |
| 2026-05-07 15:58 | 55.50560 | 12.47033 | 1979 ft | 173 kts | 39° |
| 2026-05-07 15:58 | 55.51461 | 12.48412 | 1958 ft | 171 kts | 39° |
| 2026-05-07 15:59 | 55.52349 | 12.49775 | 1816 ft | 166 kts | 40° |
| 2026-05-07 15:59 | 55.53140 | 12.50991 | 1644 ft | 154 kts | 40° |
| 2026-05-07 15:59 | 55.53895 | 12.52151 | 1448 ft | 151 kts | 40° |
| 2026-05-07 15:59 | 55.54676 | 12.53352 | 1249 ft | 150 kts | 40° |
| 2026-05-07 16:00 | 55.55467 | 12.54566 | 1096 ft | 150 kts | 40° |
| 2026-05-07 16:00 | 55.56238 | 12.55768 | 835 ft | 148 kts | 41° |
| 2026-05-07 16:00 | 55.57004 | 12.56962 | 633 ft | 146 kts | 39° |
| 2026-05-07 16:00 | 55.57773 | 12.58115 | 438 ft | 144 kts | 39° |
| 2026-05-07 16:01 | 55.58532 | 12.59285 | 256 ft | 140 kts | 39° |
| 2026-05-07 16:01 | 55.59226 | 12.60359 | 82 ft | 128 kts | 39° |
| 2026-05-07 16:01 | 55.59851 | 12.61321 | 24 ft | 104 kts | 40° |
| 2026-05-07 16:01 | 55.60272 | 12.61970 | 25 ft | 55 kts | 41° |
| 2026-05-07 16:02 | 55.60484 | 12.62271 | 25 ft | 34 kts | 25° |
| 2026-05-07 16:02 | 55.60663 | 12.62356 | 25 ft | 19 kts | 11° |
| 2026-05-07 16:02 | 55.60806 | 12.62427 | 27 ft | 23 kts | 27° |
| 2026-05-07 16:02 | 55.60929 | 12.62611 | 24 ft | 23 kts | 41° |
| 2026-05-07 16:03 | 55.61060 | 12.62814 | 24 ft | 28 kts | 41° |
| 2026-05-07 16:03 | 55.61216 | 12.63055 | 24 ft | 30 kts | 41° |
| 2026-05-07 16:03 | 55.61370 | 12.63293 | 25 ft | 28 kts | 41° |
| 2026-05-07 16:03 | 55.61510 | 12.63510 | 26 ft | 29 kts | 41° |
| 2026-05-07 16:04 | 55.61662 | 12.63745 | 25 ft | 30 kts | 41° |
| 2026-05-07 16:04 | 55.61831 | 12.64007 | 24 ft | 35 kts | 41° |
| 2026-05-07 16:04 | 55.62056 | 12.64225 | 24 ft | 40 kts | 25° |
| 2026-05-07 16:04 | 55.62245 | 12.64405 | 24 ft | 28 kts | 48° |
| 2026-05-07 16:05 | 55.62339 | 12.64663 | 24 ft | 21 kts | 24° |
| 2026-05-07 16:05 | 55.62455 | 12.64668 | 24 ft | 17 kts | 353° |
| 2026-05-07 16:05 | 55.62572 | 12.64652 | 24 ft | 16 kts | 360° |
| 2026-05-07 16:05 | 55.62641 | 12.64626 | 25 ft | 9 kts | 300° |
| 2026-05-07 16:06 | 55.62646 | 12.64572 | 24 ft | 2 kts | 281° |
| 2026-05-07 16:06 | 55.62649 | 12.64552 | 25 ft | 0 kts | 281° |